sensor_id;sensor_type;location;lat;lon;timestamp;P1;durP1;ratioP1;P2;durP2;ratioP2
37280;SDS011;23169;41.804;12.596;2022-07-29T00:03:19;15.35;;;5.55;;
37280;SDS011;23169;41.804;12.596;2022-07-29T00:05:47;19.13;;;6.43;;
37280;SDS011;23169;41.804;12.596;2022-07-29T00:08:16;12.02;;;5.00;;
37280;SDS011;23169;41.804;12.596;2022-07-29T00:10:44;11.60;;;5.30;;
37280;SDS011;23169;41.804;12.596;2022-07-29T00:13:13;15.40;;;5.38;;
37280;SDS011;23169;41.804;12.596;2022-07-29T00:15:42;16.42;;;5.97;;
37280;SDS011;23169;41.804;12.596;2022-07-29T00:18:10;10.40;;;5.15;;
37280;SDS011;23169;41.804;12.596;2022-07-29T00:20:39;12.27;;;4.90;;
37280;SDS011;23169;41.804;12.596;2022-07-29T00:23:08;15.25;;;5.25;;
37280;SDS011;23169;41.804;12.596;2022-07-29T00:25:36;15.45;;;5.40;;
37280;SDS011;23169;41.804;12.596;2022-07-29T00:28:05;14.07;;;5.22;;
37280;SDS011;23169;41.804;12.596;2022-07-29T00:30:34;14.52;;;5.28;;
37280;SDS011;23169;41.804;12.596;2022-07-29T00:33:02;12.85;;;5.43;;
37280;SDS011;23169;41.804;12.596;2022-07-29T00:35:31;16.48;;;5.55;;
37280;SDS011;23169;41.804;12.596;2022-07-29T00:38:12;12.38;;;5.03;;
37280;SDS011;23169;41.804;12.596;2022-07-29T00:40:42;11.95;;;5.00;;
37280;SDS011;23169;41.804;12.596;2022-07-29T00:43:12;9.80;;;4.28;;
37280;SDS011;23169;41.804;12.596;2022-07-29T00:45:42;9.10;;;4.28;;
37280;SDS011;23169;41.804;12.596;2022-07-29T00:48:11;11.63;;;4.78;;
37280;SDS011;23169;41.804;12.596;2022-07-29T00:50:40;10.32;;;3.78;;
37280;SDS011;23169;41.804;12.596;2022-07-29T00:53:09;12.38;;;4.05;;
37280;SDS011;23169;41.804;12.596;2022-07-29T00:55:40;14.95;;;4.45;;
37280;SDS011;23169;41.804;12.596;2022-07-29T00:58:08;14.10;;;4.22;;
37280;SDS011;23169;41.804;12.596;2022-07-29T01:00:42;14.23;;;4.20;;
37280;SDS011;23169;41.804;12.596;2022-07-29T01:03:11;11.65;;;3.67;;
37280;SDS011;23169;41.804;12.596;2022-07-29T01:05:39;11.27;;;3.60;;
37280;SDS011;23169;41.804;12.596;2022-07-29T01:08:11;12.65;;;4.10;;
37280;SDS011;23169;41.804;12.596;2022-07-29T01:10:40;12.18;;;5.13;;
37280;SDS011;23169;41.804;12.596;2022-07-29T01:13:11;13.88;;;4.43;;
37280;SDS011;23169;41.804;12.596;2022-07-29T01:15:45;15.60;;;4.30;;
37280;SDS011;23169;41.804;12.596;2022-07-29T01:18:22;12.13;;;4.32;;
37280;SDS011;23169;41.804;12.596;2022-07-29T01:26:49;10.73;;;3.92;;
37280;SDS011;23169;41.804;12.596;2022-07-29T01:29:28;10.35;;;4.43;;
37280;SDS011;23169;41.804;12.596;2022-07-29T01:32:14;9.65;;;4.60;;
37280;SDS011;23169;41.804;12.596;2022-07-29T01:34:52;7.15;;;3.90;;
37280;SDS011;23169;41.804;12.596;2022-07-29T01:37:26;9.32;;;4.05;;
37280;SDS011;23169;41.804;12.596;2022-07-29T01:40:33;11.57;;;4.43;;
37280;SDS011;23169;41.804;12.596;2022-07-29T01:43:27;11.05;;;4.10;;
37280;SDS011;23169;41.804;12.596;2022-07-29T01:46:04;6.72;;;4.07;;
37280;SDS011;23169;41.804;12.596;2022-07-29T01:48:57;13.50;;;4.60;;
37280;SDS011;23169;41.804;12.596;2022-07-29T01:51:37;9.98;;;4.50;;
37280;SDS011;23169;41.804;12.596;2022-07-29T01:54:14;13.63;;;4.20;;
37280;SDS011;23169;41.804;12.596;2022-07-29T01:57:04;10.85;;;4.32;;
37280;SDS011;23169;41.804;12.596;2022-07-29T01:59:35;10.63;;;4.57;;
37280;SDS011;23169;41.804;12.596;2022-07-29T02:02:06;13.02;;;4.68;;
37280;SDS011;23169;41.804;12.596;2022-07-29T02:04:36;12.48;;;4.68;;
37280;SDS011;23169;41.804;12.596;2022-07-29T02:07:07;13.75;;;4.40;;
37280;SDS011;23169;41.804;12.596;2022-07-29T02:09:40;17.77;;;4.85;;
37280;SDS011;23169;41.804;12.596;2022-07-29T02:12:09;11.85;;;4.80;;
37280;SDS011;23169;41.804;12.596;2022-07-29T02:14:43;14.50;;;5.05;;
37280;SDS011;23169;41.804;12.596;2022-07-29T02:17:15;10.15;;;4.65;;
37280;SDS011;23169;41.804;12.596;2022-07-29T02:19:59;11.15;;;4.75;;
37280;SDS011;23169;41.804;12.596;2022-07-29T02:22:31;11.50;;;4.53;;
37280;SDS011;23169;41.804;12.596;2022-07-29T02:25:03;12.68;;;4.80;;
37280;SDS011;23169;41.804;12.596;2022-07-29T02:27:33;14.02;;;5.35;;
37280;SDS011;23169;41.804;12.596;2022-07-29T02:30:03;12.27;;;5.13;;
37280;SDS011;23169;41.804;12.596;2022-07-29T02:32:36;13.93;;;5.55;;
37280;SDS011;23169;41.804;12.596;2022-07-29T02:35:06;10.82;;;5.32;;
37280;SDS011;23169;41.804;12.596;2022-07-29T02:37:36;14.23;;;5.65;;
37280;SDS011;23169;41.804;12.596;2022-07-29T02:40:04;15.20;;;5.15;;
37280;SDS011;23169;41.804;12.596;2022-07-29T02:42:36;14.25;;;5.30;;
37280;SDS011;23169;41.804;12.596;2022-07-29T02:45:06;8.95;;;4.95;;
37280;SDS011;23169;41.804;12.596;2022-07-29T02:47:44;8.68;;;4.85;;
37280;SDS011;23169;41.804;12.596;2022-07-29T02:50:21;13.98;;;5.50;;
37280;SDS011;23169;41.804;12.596;2022-07-29T02:52:58;16.85;;;6.15;;
37280;SDS011;23169;41.804;12.596;2022-07-29T02:58:31;10.95;;;4.97;;
37280;SDS011;23169;41.804;12.596;2022-07-29T03:01:02;12.00;;;4.90;;
37280;SDS011;23169;41.804;12.596;2022-07-29T03:03:33;11.32;;;4.97;;
37280;SDS011;23169;41.804;12.596;2022-07-29T03:06:04;11.55;;;5.10;;
37280;SDS011;23169;41.804;12.596;2022-07-29T03:08:34;11.15;;;4.93;;
37280;SDS011;23169;41.804;12.596;2022-07-29T03:11:03;11.50;;;4.80;;
37280;SDS011;23169;41.804;12.596;2022-07-29T03:13:32;13.18;;;5.43;;
37280;SDS011;23169;41.804;12.596;2022-07-29T03:16:00;12.57;;;4.93;;
37280;SDS011;23169;41.804;12.596;2022-07-29T03:18:30;13.30;;;5.35;;
37280;SDS011;23169;41.804;12.596;2022-07-29T03:20:59;15.38;;;5.15;;
37280;SDS011;23169;41.804;12.596;2022-07-29T03:23:28;13.68;;;5.30;;
37280;SDS011;23169;41.804;12.596;2022-07-29T03:25:56;14.90;;;5.38;;
37280;SDS011;23169;41.804;12.596;2022-07-29T03:28:25;9.85;;;5.03;;
37280;SDS011;23169;41.804;12.596;2022-07-29T03:30:54;9.73;;;4.90;;
37280;SDS011;23169;41.804;12.596;2022-07-29T03:33:23;15.68;;;5.43;;
37280;SDS011;23169;41.804;12.596;2022-07-29T03:35:51;11.00;;;4.90;;
37280;SDS011;23169;41.804;12.596;2022-07-29T03:38:20;9.73;;;4.80;;
37280;SDS011;23169;41.804;12.596;2022-07-29T03:41:02;14.02;;;6.22;;
37280;SDS011;23169;41.804;12.596;2022-07-29T03:43:36;15.45;;;5.65;;
37280;SDS011;23169;41.804;12.596;2022-07-29T03:46:07;10.35;;;5.25;;
37280;SDS011;23169;41.804;12.596;2022-07-29T03:48:41;14.98;;;5.45;;
37280;SDS011;23169;41.804;12.596;2022-07-29T03:51:13;11.18;;;4.80;;
37280;SDS011;23169;41.804;12.596;2022-07-29T03:53:42;9.45;;;4.90;;
37280;SDS011;23169;41.804;12.596;2022-07-29T03:56:14;17.25;;;5.38;;
37280;SDS011;23169;41.804;12.596;2022-07-29T03:58:45;10.02;;;4.95;;
37280;SDS011;23169;41.804;12.596;2022-07-29T04:01:15;17.55;;;4.93;;
37280;SDS011;23169;41.804;12.596;2022-07-29T04:03:45;12.07;;;5.30;;
37280;SDS011;23169;41.804;12.596;2022-07-29T04:06:13;20.58;;;5.68;;
37280;SDS011;23169;41.804;12.596;2022-07-29T04:08:42;13.65;;;5.10;;
37280;SDS011;23169;41.804;12.596;2022-07-29T04:11:10;15.40;;;5.07;;
37280;SDS011;23169;41.804;12.596;2022-07-29T04:13:39;13.45;;;4.95;;
37280;SDS011;23169;41.804;12.596;2022-07-29T04:16:07;15.40;;;5.10;;
37280;SDS011;23169;41.804;12.596;2022-07-29T04:18:35;15.38;;;5.65;;
37280;SDS011;23169;41.804;12.596;2022-07-29T04:21:03;11.70;;;5.30;;
37280;SDS011;23169;41.804;12.596;2022-07-29T04:23:32;14.00;;;4.78;;
37280;SDS011;23169;41.804;12.596;2022-07-29T04:26:00;9.70;;;4.93;;
37280;SDS011;23169;41.804;12.596;2022-07-29T04:28:30;10.45;;;4.80;;
37280;SDS011;23169;41.804;12.596;2022-07-29T04:31:00;12.52;;;4.53;;
37280;SDS011;23169;41.804;12.596;2022-07-29T04:33:28;12.82;;;4.80;;
37280;SDS011;23169;41.804;12.596;2022-07-29T04:35:56;14.65;;;5.05;;
37280;SDS011;23169;41.804;12.596;2022-07-29T04:38:24;15.23;;;5.38;;
37280;SDS011;23169;41.804;12.596;2022-07-29T04:40:52;12.18;;;5.32;;
37280;SDS011;23169;41.804;12.596;2022-07-29T04:43:21;13.77;;;5.32;;
37280;SDS011;23169;41.804;12.596;2022-07-29T04:45:49;16.02;;;4.97;;
37280;SDS011;23169;41.804;12.596;2022-07-29T04:48:18;19.42;;;5.55;;
37280;SDS011;23169;41.804;12.596;2022-07-29T04:50:46;13.35;;;4.88;;
37280;SDS011;23169;41.804;12.596;2022-07-29T04:53:15;9.95;;;4.65;;
37280;SDS011;23169;41.804;12.596;2022-07-29T04:55:43;13.25;;;5.28;;
37280;SDS011;23169;41.804;12.596;2022-07-29T04:58:15;11.07;;;4.72;;
37280;SDS011;23169;41.804;12.596;2022-07-29T05:00:44;14.93;;;5.72;;
37280;SDS011;23169;41.804;12.596;2022-07-29T05:03:12;14.23;;;5.28;;
37280;SDS011;23169;41.804;12.596;2022-07-29T05:05:40;14.32;;;5.40;;
37280;SDS011;23169;41.804;12.596;2022-07-29T05:08:09;9.60;;;5.13;;
37280;SDS011;23169;41.804;12.596;2022-07-29T05:10:38;9.57;;;4.70;;
37280;SDS011;23169;41.804;12.596;2022-07-29T05:13:07;16.55;;;5.32;;
37280;SDS011;23169;41.804;12.596;2022-07-29T05:15:36;16.13;;;4.82;;
37280;SDS011;23169;41.804;12.596;2022-07-29T05:18:07;15.27;;;4.82;;
37280;SDS011;23169;41.804;12.596;2022-07-29T05:20:35;9.20;;;4.88;;
37280;SDS011;23169;41.804;12.596;2022-07-29T05:23:04;14.70;;;5.30;;
37280;SDS011;23169;41.804;12.596;2022-07-29T05:25:35;15.20;;;5.90;;
37280;SDS011;23169;41.804;12.596;2022-07-29T05:28:04;12.73;;;5.82;;
37280;SDS011;23169;41.804;12.596;2022-07-29T05:30:32;19.38;;;5.43;;
37280;SDS011;23169;41.804;12.596;2022-07-29T05:33:00;14.30;;;5.40;;
37280;SDS011;23169;41.804;12.596;2022-07-29T05:35:29;15.95;;;5.85;;
37280;SDS011;23169;41.804;12.596;2022-07-29T05:37:58;12.80;;;5.40;;
37280;SDS011;23169;41.804;12.596;2022-07-29T05:40:28;13.48;;;5.30;;
37280;SDS011;23169;41.804;12.596;2022-07-29T05:42:56;16.27;;;5.75;;
37280;SDS011;23169;41.804;12.596;2022-07-29T05:45:24;14.57;;;5.50;;
37280;SDS011;23169;41.804;12.596;2022-07-29T05:47:52;13.38;;;5.15;;
37280;SDS011;23169;41.804;12.596;2022-07-29T05:50:20;19.20;;;6.90;;
37280;SDS011;23169;41.804;12.596;2022-07-29T05:52:48;15.38;;;5.25;;
37280;SDS011;23169;41.804;12.596;2022-07-29T05:55:17;17.50;;;5.88;;
37280;SDS011;23169;41.804;12.596;2022-07-29T05:57:45;12.98;;;5.40;;
37280;SDS011;23169;41.804;12.596;2022-07-29T06:00:13;16.15;;;5.68;;
37280;SDS011;23169;41.804;12.596;2022-07-29T06:02:42;15.15;;;5.25;;
37280;SDS011;23169;41.804;12.596;2022-07-29T06:05:10;13.38;;;4.78;;
37280;SDS011;23169;41.804;12.596;2022-07-29T06:07:38;10.43;;;5.00;;
37280;SDS011;23169;41.804;12.596;2022-07-29T06:10:06;15.45;;;5.63;;
37280;SDS011;23169;41.804;12.596;2022-07-29T06:12:35;16.45;;;5.68;;
37280;SDS011;23169;41.804;12.596;2022-07-29T06:15:03;16.15;;;5.22;;
37280;SDS011;23169;41.804;12.596;2022-07-29T06:17:35;15.45;;;4.75;;
37280;SDS011;23169;41.804;12.596;2022-07-29T06:20:03;8.90;;;4.47;;
37280;SDS011;23169;41.804;12.596;2022-07-29T06:22:32;14.68;;;4.70;;
37280;SDS011;23169;41.804;12.596;2022-07-29T06:25:01;8.38;;;4.28;;
37280;SDS011;23169;41.804;12.596;2022-07-29T06:27:29;11.07;;;4.80;;
37280;SDS011;23169;41.804;12.596;2022-07-29T06:29:57;6.40;;;4.50;;
37280;SDS011;23169;41.804;12.596;2022-07-29T06:32:25;10.65;;;4.95;;
37280;SDS011;23169;41.804;12.596;2022-07-29T06:34:54;12.25;;;4.47;;
37280;SDS011;23169;41.804;12.596;2022-07-29T06:37:22;11.25;;;4.80;;
37280;SDS011;23169;41.804;12.596;2022-07-29T06:39:50;12.57;;;4.75;;
37280;SDS011;23169;41.804;12.596;2022-07-29T06:42:42;13.88;;;4.53;;
37280;SDS011;23169;41.804;12.596;2022-07-29T06:45:11;10.43;;;4.60;;
37280;SDS011;23169;41.804;12.596;2022-07-29T06:47:39;14.20;;;4.72;;
37280;SDS011;23169;41.804;12.596;2022-07-29T06:50:09;11.30;;;4.90;;
37280;SDS011;23169;41.804;12.596;2022-07-29T06:52:39;11.25;;;4.88;;
37280;SDS011;23169;41.804;12.596;2022-07-29T06:55:08;9.40;;;4.07;;
37280;SDS011;23169;41.804;12.596;2022-07-29T06:57:36;9.20;;;4.40;;
37280;SDS011;23169;41.804;12.596;2022-07-29T07:00:05;14.70;;;4.78;;
37280;SDS011;23169;41.804;12.596;2022-07-29T07:02:35;8.45;;;4.53;;
37280;SDS011;23169;41.804;12.596;2022-07-29T07:05:03;12.90;;;4.70;;
37280;SDS011;23169;41.804;12.596;2022-07-29T07:07:36;11.85;;;4.22;;
37280;SDS011;23169;41.804;12.596;2022-07-29T07:10:04;13.75;;;4.30;;
37280;SDS011;23169;41.804;12.596;2022-07-29T07:12:33;14.73;;;4.90;;
37280;SDS011;23169;41.804;12.596;2022-07-29T07:15:04;16.52;;;4.95;;
37280;SDS011;23169;41.804;12.596;2022-07-29T07:17:33;10.60;;;5.35;;
37280;SDS011;23169;41.804;12.596;2022-07-29T07:20:01;9.32;;;4.28;;
37280;SDS011;23169;41.804;12.596;2022-07-29T07:22:30;11.25;;;3.92;;
37280;SDS011;23169;41.804;12.596;2022-07-29T07:24:58;10.38;;;4.50;;
37280;SDS011;23169;41.804;12.596;2022-07-29T07:27:26;9.60;;;4.07;;
37280;SDS011;23169;41.804;12.596;2022-07-29T07:29:54;9.73;;;5.00;;
37280;SDS011;23169;41.804;12.596;2022-07-29T07:32:22;16.98;;;4.95;;
37280;SDS011;23169;41.804;12.596;2022-07-29T07:34:51;8.45;;;4.40;;
37280;SDS011;23169;41.804;12.596;2022-07-29T07:37:19;11.32;;;4.43;;
37280;SDS011;23169;41.804;12.596;2022-07-29T07:39:48;13.95;;;4.40;;
37280;SDS011;23169;41.804;12.596;2022-07-29T07:42:16;14.45;;;4.85;;
37280;SDS011;23169;41.804;12.596;2022-07-29T07:44:44;12.23;;;4.70;;
37280;SDS011;23169;41.804;12.596;2022-07-29T07:47:13;10.75;;;4.45;;
37280;SDS011;23169;41.804;12.596;2022-07-29T07:49:47;12.35;;;4.50;;
37280;SDS011;23169;41.804;12.596;2022-07-29T07:52:16;14.13;;;4.68;;
37280;SDS011;23169;41.804;12.596;2022-07-29T07:54:46;11.07;;;4.70;;
37280;SDS011;23169;41.804;12.596;2022-07-29T07:57:15;11.38;;;4.30;;
37280;SDS011;23169;41.804;12.596;2022-07-29T07:59:44;13.70;;;4.10;;
37280;SDS011;23169;41.804;12.596;2022-07-29T08:02:12;11.52;;;4.45;;
37280;SDS011;23169;41.804;12.596;2022-07-29T08:04:40;6.25;;;3.75;;
37280;SDS011;23169;41.804;12.596;2022-07-29T08:07:12;12.50;;;4.25;;
37280;SDS011;23169;41.804;12.596;2022-07-29T08:09:42;15.30;;;4.38;;
37280;SDS011;23169;41.804;12.596;2022-07-29T08:12:10;13.38;;;4.25;;
37280;SDS011;23169;41.804;12.596;2022-07-29T08:14:38;11.25;;;4.00;;
37280;SDS011;23169;41.804;12.596;2022-07-29T08:17:06;9.43;;;4.40;;
37280;SDS011;23169;41.804;12.596;2022-07-29T08:19:35;11.07;;;4.35;;
37280;SDS011;23169;41.804;12.596;2022-07-29T08:22:04;18.58;;;4.60;;
37280;SDS011;23169;41.804;12.596;2022-07-29T08:24:34;12.75;;;4.40;;
37280;SDS011;23169;41.804;12.596;2022-07-29T08:27:12;14.52;;;4.20;;
37280;SDS011;23169;41.804;12.596;2022-07-29T08:29:40;8.43;;;3.83;;
37280;SDS011;23169;41.804;12.596;2022-07-29T08:32:09;12.20;;;4.30;;
37280;SDS011;23169;41.804;12.596;2022-07-29T08:34:37;11.80;;;4.38;;
37280;SDS011;23169;41.804;12.596;2022-07-29T08:37:06;12.65;;;4.07;;
37280;SDS011;23169;41.804;12.596;2022-07-29T08:39:34;11.85;;;4.30;;
37280;SDS011;23169;41.804;12.596;2022-07-29T08:42:03;13.35;;;4.20;;
37280;SDS011;23169;41.804;12.596;2022-07-29T08:44:32;9.50;;;4.25;;
37280;SDS011;23169;41.804;12.596;2022-07-29T08:47:01;11.23;;;4.00;;
37280;SDS011;23169;41.804;12.596;2022-07-29T08:49:30;10.77;;;4.50;;
37280;SDS011;23169;41.804;12.596;2022-07-29T08:52:00;11.60;;;4.05;;
37280;SDS011;23169;41.804;12.596;2022-07-29T08:54:29;11.95;;;4.28;;
37280;SDS011;23169;41.804;12.596;2022-07-29T08:56:58;9.60;;;4.32;;
37280;SDS011;23169;41.804;12.596;2022-07-29T08:59:29;12.80;;;4.28;;
37280;SDS011;23169;41.804;12.596;2022-07-29T09:02:01;13.90;;;4.47;;
37280;SDS011;23169;41.804;12.596;2022-07-29T09:04:33;11.05;;;4.28;;
37280;SDS011;23169;41.804;12.596;2022-07-29T09:07:03;10.73;;;4.40;;
37280;SDS011;23169;41.804;12.596;2022-07-29T09:09:33;8.10;;;4.15;;
37280;SDS011;23169;41.804;12.596;2022-07-29T09:12:02;11.63;;;4.10;;
37280;SDS011;23169;41.804;12.596;2022-07-29T09:14:31;14.38;;;4.28;;
37280;SDS011;23169;41.804;12.596;2022-07-29T09:17:00;8.73;;;3.83;;
37280;SDS011;23169;41.804;12.596;2022-07-29T09:19:32;8.70;;;3.95;;
37280;SDS011;23169;41.804;12.596;2022-07-29T09:22:05;10.32;;;3.95;;
37280;SDS011;23169;41.804;12.596;2022-07-29T09:27:25;12.40;;;4.13;;
37280;SDS011;23169;41.804;12.596;2022-07-29T09:29:57;13.13;;;4.10;;
37280;SDS011;23169;41.804;12.596;2022-07-29T09:32:56;11.20;;;4.30;;
37280;SDS011;23169;41.804;12.596;2022-07-29T09:35:28;19.00;;;5.63;;
37280;SDS011;23169;41.804;12.596;2022-07-29T09:37:58;10.65;;;4.50;;
37280;SDS011;23169;41.804;12.596;2022-07-29T09:40:44;15.07;;;5.75;;
37280;SDS011;23169;41.804;12.596;2022-07-29T09:43:24;12.45;;;4.80;;
37280;SDS011;23169;41.804;12.596;2022-07-29T09:45:53;7.55;;;3.70;;
37280;SDS011;23169;41.804;12.596;2022-07-29T09:48:22;7.43;;;3.88;;
37280;SDS011;23169;41.804;12.596;2022-07-29T09:50:52;13.35;;;4.40;;
37280;SDS011;23169;41.804;12.596;2022-07-29T09:53:32;12.95;;;3.90;;
37280;SDS011;23169;41.804;12.596;2022-07-29T09:56:04;11.23;;;4.03;;
37280;SDS011;23169;41.804;12.596;2022-07-29T09:58:33;13.55;;;4.65;;
37280;SDS011;23169;41.804;12.596;2022-07-29T10:01:02;15.07;;;4.38;;
37280;SDS011;23169;41.804;12.596;2022-07-29T10:03:49;12.75;;;4.50;;
37280;SDS011;23169;41.804;12.596;2022-07-29T10:06:19;8.50;;;4.30;;
37280;SDS011;23169;41.804;12.596;2022-07-29T10:08:50;9.50;;;3.53;;
37280;SDS011;23169;41.804;12.596;2022-07-29T10:11:19;10.25;;;4.35;;
37280;SDS011;23169;41.804;12.596;2022-07-29T10:13:48;11.55;;;4.60;;
37280;SDS011;23169;41.804;12.596;2022-07-29T10:16:16;12.23;;;4.40;;
37280;SDS011;23169;41.804;12.596;2022-07-29T10:18:45;9.20;;;3.58;;
37280;SDS011;23169;41.804;12.596;2022-07-29T10:21:14;10.25;;;3.95;;
37280;SDS011;23169;41.804;12.596;2022-07-29T10:23:42;12.85;;;4.05;;
37280;SDS011;23169;41.804;12.596;2022-07-29T10:26:12;12.77;;;4.07;;
37280;SDS011;23169;41.804;12.596;2022-07-29T10:28:42;9.60;;;3.65;;
37280;SDS011;23169;41.804;12.596;2022-07-29T10:31:14;11.50;;;4.35;;
37280;SDS011;23169;41.804;12.596;2022-07-29T10:33:56;14.15;;;4.55;;
37280;SDS011;23169;41.804;12.596;2022-07-29T10:42:54;10.00;;;4.63;;
37280;SDS011;23169;41.804;12.596;2022-07-29T10:45:27;11.55;;;4.40;;
37280;SDS011;23169;41.804;12.596;2022-07-29T10:48:02;8.20;;;4.13;;
37280;SDS011;23169;41.804;12.596;2022-07-29T10:53:49;9.38;;;3.97;;
37280;SDS011;23169;41.804;12.596;2022-07-29T10:56:25;9.02;;;3.88;;
37280;SDS011;23169;41.804;12.596;2022-07-29T11:01:46;5.55;;;3.22;;
37280;SDS011;23169;41.804;12.596;2022-07-29T11:07:13;11.45;;;3.95;;
37280;SDS011;23169;41.804;12.596;2022-07-29T11:09:43;12.07;;;4.40;;
37280;SDS011;23169;41.804;12.596;2022-07-29T11:15:06;9.90;;;3.72;;
37280;SDS011;23169;41.804;12.596;2022-07-29T11:20:39;13.93;;;4.40;;
37280;SDS011;23169;41.804;12.596;2022-07-29T11:23:26;10.43;;;4.15;;
37280;SDS011;23169;41.804;12.596;2022-07-29T11:31:40;16.60;;;4.20;;
37280;SDS011;23169;41.804;12.596;2022-07-29T11:34:31;7.47;;;4.00;;
37280;SDS011;23169;41.804;12.596;2022-07-29T11:44:56;10.45;;;3.50;;
37280;SDS011;23169;41.804;12.596;2022-07-29T11:47:24;13.50;;;4.43;;
37280;SDS011;23169;41.804;12.596;2022-07-29T11:49:56;9.77;;;3.83;;
37280;SDS011;23169;41.804;12.596;2022-07-29T11:52:36;11.93;;;4.15;;
37280;SDS011;23169;41.804;12.596;2022-07-29T11:55:11;9.20;;;3.83;;
37280;SDS011;23169;41.804;12.596;2022-07-29T11:57:47;12.07;;;4.00;;
37280;SDS011;23169;41.804;12.596;2022-07-29T12:00:21;11.07;;;3.92;;
37280;SDS011;23169;41.804;12.596;2022-07-29T12:02:50;9.85;;;4.18;;
37280;SDS011;23169;41.804;12.596;2022-07-29T12:05:20;9.25;;;3.80;;
37280;SDS011;23169;41.804;12.596;2022-07-29T12:07:49;9.60;;;3.53;;
37280;SDS011;23169;41.804;12.596;2022-07-29T12:10:18;9.73;;;4.20;;
37280;SDS011;23169;41.804;12.596;2022-07-29T12:12:50;13.48;;;4.28;;
37280;SDS011;23169;41.804;12.596;2022-07-29T12:15:19;14.40;;;4.07;;
37280;SDS011;23169;41.804;12.596;2022-07-29T12:17:48;9.48;;;3.67;;
37280;SDS011;23169;41.804;12.596;2022-07-29T12:20:26;10.10;;;4.10;;
37280;SDS011;23169;41.804;12.596;2022-07-29T12:22:56;9.80;;;3.65;;
37280;SDS011;23169;41.804;12.596;2022-07-29T12:25:24;9.18;;;4.40;;
37280;SDS011;23169;41.804;12.596;2022-07-29T12:28:01;7.20;;;3.72;;
37280;SDS011;23169;41.804;12.596;2022-07-29T12:30:49;11.52;;;3.72;;
37280;SDS011;23169;41.804;12.596;2022-07-29T12:33:20;8.02;;;3.90;;
37280;SDS011;23169;41.804;12.596;2022-07-29T12:35:54;8.00;;;3.33;;
37280;SDS011;23169;41.804;12.596;2022-07-29T12:38:25;11.02;;;4.35;;
37280;SDS011;23169;41.804;12.596;2022-07-29T12:40:54;7.38;;;2.90;;
37280;SDS011;23169;41.804;12.596;2022-07-29T12:43:24;13.85;;;3.63;;
37280;SDS011;23169;41.804;12.596;2022-07-29T12:45:56;11.15;;;3.45;;
37280;SDS011;23169;41.804;12.596;2022-07-29T12:48:37;8.68;;;3.53;;
37280;SDS011;23169;41.804;12.596;2022-07-29T12:51:07;14.10;;;3.78;;
37280;SDS011;23169;41.804;12.596;2022-07-29T12:53:37;10.85;;;3.50;;
37280;SDS011;23169;41.804;12.596;2022-07-29T12:56:06;9.95;;;3.55;;
37280;SDS011;23169;41.804;12.596;2022-07-29T12:58:43;11.85;;;3.78;;
37280;SDS011;23169;41.804;12.596;2022-07-29T13:03:54;9.50;;;3.30;;
37280;SDS011;23169;41.804;12.596;2022-07-29T13:11:40;12.57;;;4.35;;
37280;SDS011;23169;41.804;12.596;2022-07-29T13:14:32;13.38;;;4.25;;
37280;SDS011;23169;41.804;12.596;2022-07-29T13:22:10;9.80;;;3.30;;
37280;SDS011;23169;41.804;12.596;2022-07-29T13:24:46;8.15;;;3.40;;
37280;SDS011;23169;41.804;12.596;2022-07-29T13:27:19;10.77;;;3.88;;
37280;SDS011;23169;41.804;12.596;2022-07-29T13:29:50;10.88;;;3.20;;
37280;SDS011;23169;41.804;12.596;2022-07-29T13:32:20;12.30;;;4.13;;
37280;SDS011;23169;41.804;12.596;2022-07-29T13:34:48;6.60;;;3.33;;
37280;SDS011;23169;41.804;12.596;2022-07-29T13:37:18;11.60;;;3.40;;
37280;SDS011;23169;41.804;12.596;2022-07-29T13:39:46;11.52;;;3.53;;
37280;SDS011;23169;41.804;12.596;2022-07-29T13:42:17;9.98;;;3.22;;
37280;SDS011;23169;41.804;12.596;2022-07-29T13:44:46;14.23;;;3.90;;
37280;SDS011;23169;41.804;12.596;2022-07-29T13:47:16;11.50;;;3.40;;
37280;SDS011;23169;41.804;12.596;2022-07-29T13:49:45;11.40;;;4.47;;
37280;SDS011;23169;41.804;12.596;2022-07-29T13:52:13;15.25;;;3.40;;
37280;SDS011;23169;41.804;12.596;2022-07-29T13:54:43;12.90;;;3.70;;
37280;SDS011;23169;41.804;12.596;2022-07-29T13:57:11;11.68;;;3.85;;
37280;SDS011;23169;41.804;12.596;2022-07-29T13:59:41;12.43;;;5.00;;
37280;SDS011;23169;41.804;12.596;2022-07-29T14:02:12;9.68;;;3.47;;
37280;SDS011;23169;41.804;12.596;2022-07-29T14:04:40;11.80;;;3.63;;
37280;SDS011;23169;41.804;12.596;2022-07-29T14:07:09;8.20;;;3.92;;
37280;SDS011;23169;41.804;12.596;2022-07-29T14:09:37;9.88;;;3.88;;
37280;SDS011;23169;41.804;12.596;2022-07-29T14:12:06;15.60;;;4.05;;
37280;SDS011;23169;41.804;12.596;2022-07-29T14:14:35;18.13;;;6.07;;
37280;SDS011;23169;41.804;12.596;2022-07-29T14:17:04;19.25;;;5.00;;
37280;SDS011;23169;41.804;12.596;2022-07-29T14:19:34;12.50;;;3.72;;
37280;SDS011;23169;41.804;12.596;2022-07-29T14:22:03;10.13;;;3.72;;
37280;SDS011;23169;41.804;12.596;2022-07-29T14:24:35;10.25;;;4.00;;
37280;SDS011;23169;41.804;12.596;2022-07-29T14:27:04;16.23;;;5.53;;
37280;SDS011;23169;41.804;12.596;2022-07-29T14:29:34;19.20;;;9.20;;
37280;SDS011;23169;41.804;12.596;2022-07-29T14:32:03;12.20;;;4.90;;
37280;SDS011;23169;41.804;12.596;2022-07-29T14:34:35;14.32;;;4.57;;
37280;SDS011;23169;41.804;12.596;2022-07-29T14:37:04;16.90;;;5.97;;
37280;SDS011;23169;41.804;12.596;2022-07-29T14:39:34;10.25;;;3.97;;
37280;SDS011;23169;41.804;12.596;2022-07-29T14:42:03;11.38;;;3.67;;
37280;SDS011;23169;41.804;12.596;2022-07-29T14:44:33;7.82;;;3.60;;
37280;SDS011;23169;41.804;12.596;2022-07-29T14:47:01;10.23;;;3.70;;
37280;SDS011;23169;41.804;12.596;2022-07-29T14:49:30;11.70;;;5.53;;
37280;SDS011;23169;41.804;12.596;2022-07-29T14:51:58;13.13;;;5.68;;
37280;SDS011;23169;41.804;12.596;2022-07-29T14:54:26;10.50;;;3.60;;
37280;SDS011;23169;41.804;12.596;2022-07-29T14:56:54;12.50;;;4.13;;
37280;SDS011;23169;41.804;12.596;2022-07-29T14:59:25;13.02;;;4.95;;
37280;SDS011;23169;41.804;12.596;2022-07-29T15:01:53;12.32;;;3.78;;
37280;SDS011;23169;41.804;12.596;2022-07-29T15:04:21;8.55;;;3.50;;
37280;SDS011;23169;41.804;12.596;2022-07-29T15:06:51;9.13;;;3.55;;
37280;SDS011;23169;41.804;12.596;2022-07-29T15:09:19;10.32;;;3.45;;
37280;SDS011;23169;41.804;12.596;2022-07-29T15:11:47;14.80;;;4.15;;
37280;SDS011;23169;41.804;12.596;2022-07-29T15:14:15;11.65;;;3.83;;
37280;SDS011;23169;41.804;12.596;2022-07-29T15:16:44;10.82;;;3.50;;
37280;SDS011;23169;41.804;12.596;2022-07-29T15:19:12;9.68;;;3.53;;
37280;SDS011;23169;41.804;12.596;2022-07-29T15:21:40;13.60;;;3.30;;
37280;SDS011;23169;41.804;12.596;2022-07-29T15:24:08;15.57;;;4.18;;
37280;SDS011;23169;41.804;12.596;2022-07-29T15:26:39;7.03;;;3.15;;
37280;SDS011;23169;41.804;12.596;2022-07-29T15:29:07;8.02;;;3.30;;
37280;SDS011;23169;41.804;12.596;2022-07-29T15:31:37;11.30;;;3.28;;
37280;SDS011;23169;41.804;12.596;2022-07-29T15:34:05;16.08;;;3.67;;
37280;SDS011;23169;41.804;12.596;2022-07-29T15:36:35;9.60;;;3.33;;
37280;SDS011;23169;41.804;12.596;2022-07-29T15:39:04;6.13;;;3.10;;
37280;SDS011;23169;41.804;12.596;2022-07-29T15:41:32;13.43;;;3.70;;
37280;SDS011;23169;41.804;12.596;2022-07-29T15:44:01;13.40;;;3.75;;
37280;SDS011;23169;41.804;12.596;2022-07-29T15:46:31;10.52;;;3.60;;